Edwards County Airport


Codes: KECU/
Name: Edwards County Airport
City: Rocksprings
Country: United States
Elevation: 2372 ft.

Photos at Edwards County Airport


   Photos courtesy of SpottingLog. You can add your own sightings and photos by signing up for a free trial today.



No photos found.

Weather at Edwards County Airport


Time (UTC)DescriptionTempratureWindCloud coverageVisibilityPressureHumidity
18-Apr-2024 00:00Clear Sky29°C11 mph, S0%10000m1014hPa48%
18-Apr-2024 03:00Scattered Clouds27°C11 mph, SE33%10000m1013hPa59%
18-Apr-2024 06:00Light Rain23°C18 mph, SE67%10000m1013hPa80%
18-Apr-2024 09:00Light Rain20°C7 mph, S94%10000m1011hPa97%
18-Apr-2024 12:00Overcast Clouds19°C11 mph, N99%0m1012hPa98%
18-Apr-2024 15:00Overcast Clouds22°C16 mph, S96%10000m1013hPa79%
18-Apr-2024 18:00Broken Clouds31°C13 mph, S67%10000m1011hPa44%
18-Apr-2024 21:00Clear Sky34°C11 mph, S0%10000m1009hPa31%
19-Apr-2024 00:00Clear Sky33°C11 mph, S0%10000m1007hPa27%
19-Apr-2024 03:00Moderate Rain21°C11 mph, N22%0m1012hPa73%
19-Apr-2024 06:00Moderate Rain19°C22 mph, SE53%10000m1014hPa86%
19-Apr-2024 09:00Overcast Clouds19°C9 mph, SE100%10000m1013hPa85%
19-Apr-2024 12:00Overcast Clouds18°C7 mph, SE90%10000m1015hPa90%
19-Apr-2024 15:00Broken Clouds21°C11 mph, E67%10000m1016hPa74%
19-Apr-2024 18:00Broken Clouds22°C13 mph, E84%10000m1015hPa77%
19-Apr-2024 21:00Overcast Clouds21°C13 mph, E100%10000m1014hPa79%
20-Apr-2024 00:00Overcast Clouds21°C16 mph, E100%10000m1012hPa80%
20-Apr-2024 03:00Light Rain19°C16 mph, E100%10000m1013hPa91%
20-Apr-2024 06:00Light Rain19°C18 mph, SE100%10000m1014hPa95%
20-Apr-2024 09:00Overcast Clouds18°C18 mph, E100%10000m1014hPa90%
20-Apr-2024 12:00Overcast Clouds16°C7 mph, SE85%10000m1014hPa93%
20-Apr-2024 15:00Light Rain20°C13 mph, SE98%10000m1015hPa84%
20-Apr-2024 18:00Light Rain21°C13 mph, SE99%10000m1014hPa79%
20-Apr-2024 21:00Light Rain22°C9 mph, E100%10000m1012hPa79%
21-Apr-2024 00:00Moderate Rain19°C9 mph, NE100%10000m1012hPa88%
21-Apr-2024 03:00Moderate Rain16°C16 mph, NE91%3970m1015hPa96%
21-Apr-2024 06:00Moderate Rain15°C18 mph, NE95%10000m1016hPa95%
21-Apr-2024 09:00Light Rain15°C13 mph, NE100%10000m1017hPa95%
21-Apr-2024 12:00Overcast Clouds15°C11 mph, NE99%10000m1018hPa94%
21-Apr-2024 15:00Overcast Clouds14°C18 mph, NE96%10000m1020hPa91%
21-Apr-2024 18:00Overcast Clouds18°C16 mph, NE97%10000m1020hPa73%
21-Apr-2024 21:00Broken Clouds20°C13 mph, NE73%10000m1018hPa64%
22-Apr-2024 00:00Overcast Clouds16°C16 mph, NE86%10000m1018hPa73%
22-Apr-2024 03:00Broken Clouds13°C13 mph, NE75%10000m1020hPa81%
22-Apr-2024 06:00Broken Clouds12°C11 mph, E60%10000m1020hPa85%
22-Apr-2024 09:00Overcast Clouds12°C7 mph, E89%10000m1019hPa84%
22-Apr-2024 12:00Overcast Clouds12°C9 mph, SE95%10000m1020hPa84%
22-Apr-2024 15:00Overcast Clouds15°C9 mph, SE91%10000m1020hPa73%
22-Apr-2024 18:00Broken Clouds20°C11 mph, S70%10000m1018hPa58%
22-Apr-2024 21:00Broken Clouds22°C13 mph, S73%10000m1014hPa54%